createdAt,value
2024-01-06T18:01:36.757Z,35.93
2024-01-06T18:02:10.869Z,35.93
2024-01-06T18:02:48.326Z,36.30
2024-01-06T18:03:22.356Z,34.30
2024-01-06T18:03:58.819Z,34.27
2024-01-06T18:04:32.554Z,35.30
2024-01-06T18:05:09.721Z,34.73
2024-01-06T18:05:43.370Z,35.47
2024-01-06T18:06:16.814Z,33.87
2024-01-06T18:06:55.993Z,35.07
2024-01-06T18:07:31.638Z,35.03
2024-01-06T18:08:05.884Z,33.40
2024-01-06T18:08:39.171Z,34.80
2024-01-06T18:09:15.512Z,35.07
2024-01-06T18:09:49.285Z,34.10
2024-01-06T18:10:24.364Z,34.27
2024-01-06T18:10:57.755Z,35.27
2024-01-06T18:11:31.104Z,33.43
2024-01-06T18:12:05.551Z,33.37
2024-01-06T18:12:40.252Z,34.40
2024-01-06T18:13:13.685Z,35.10
2024-01-06T18:13:47.026Z,35.50
2024-01-06T18:14:23.368Z,35.90
2024-01-06T18:14:56.692Z,35.97
2024-01-06T18:15:33.793Z,35.47
2024-01-06T18:16:08.083Z,36.07
2024-01-06T18:16:41.837Z,36.17
2024-01-06T18:17:15.266Z,35.57
2024-01-06T18:17:48.731Z,35.97
2024-01-06T18:18:23.950Z,35.30
2024-01-06T18:18:57.864Z,36.90
2024-01-06T18:19:31.767Z,35.17
2024-01-06T18:20:07.681Z,35.77
2024-01-06T18:20:47.974Z,37.53
2024-01-06T18:21:23.459Z,38.17
2024-01-06T18:21:57.261Z,34.97
2024-01-06T18:22:31.316Z,37.07
2024-01-06T18:23:04.949Z,37.33
2024-01-06T18:23:39.462Z,38.03
2024-01-06T18:24:13.346Z,38.13
2024-01-06T18:24:47.358Z,39.20
2024-01-06T18:25:20.944Z,40.00
2024-01-06T18:25:55.624Z,40.50
2024-01-06T18:26:29.194Z,40.27
2024-01-06T18:27:02.536Z,38.00
2024-01-06T18:27:36.069Z,37.93
2024-01-06T18:28:09.595Z,38.93
2024-01-06T18:28:43.606Z,39.17
2024-01-06T18:29:19.325Z,40.77
2024-01-06T18:29:53.123Z,39.33
2024-01-06T18:30:27.829Z,39.80
2024-01-06T18:31:01.738Z,40.00
2024-01-06T18:31:35.219Z,39.30
2024-01-06T18:32:14.147Z,40.30
2024-01-06T18:32:50.188Z,42.57
2024-01-06T18:33:25.182Z,42.37
2024-01-06T18:33:59.141Z,42.60
2024-01-06T18:34:35.487Z,43.50
2024-01-06T18:35:09.679Z,40.63
2024-01-06T18:35:43.157Z,41.83
2024-01-06T18:36:17.330Z,42.07
2024-01-06T18:36:50.629Z,41.93
2024-01-06T18:37:24.178Z,41.93
2024-01-06T18:37:57.601Z,42.57
2024-01-06T18:38:31.081Z,43.10
2024-01-06T18:39:04.477Z,43.23
2024-01-06T18:39:37.940Z,43.57
2024-01-06T18:40:12.940Z,42.53
2024-01-06T18:40:46.618Z,42.90
2024-01-06T18:41:20.501Z,42.07
2024-01-06T18:41:56.178Z,43.47
2024-01-06T18:42:29.874Z,44.53
2024-01-06T18:43:03.599Z,43.17
2024-01-06T18:43:37.171Z,43.67
2024-01-06T18:44:11.579Z,42.97
2024-01-06T18:44:45.056Z,43.93
2024-01-06T18:45:18.810Z,44.50
2024-01-06T18:45:52.455Z,45.17
2024-01-06T18:46:26.403Z,45.13
2024-01-06T18:47:00.082Z,44.23
2024-01-06T18:47:33.588Z,43.27
2024-01-06T18:48:08.045Z,43.60
2024-01-06T18:48:41.751Z,43.07
2024-01-06T18:49:15.807Z,44.53
2024-01-06T18:49:49.480Z,45.17
2024-01-06T18:50:24.146Z,47.13
2024-01-06T18:50:57.572Z,44.43
2024-01-06T18:51:34.469Z,45.77
2024-01-06T18:52:08.288Z,44.50
2024-01-06T18:52:43.929Z,44.80
2024-01-06T18:53:18.001Z,45.17
2024-01-06T18:53:51.371Z,45.93
2024-01-06T18:54:31.338Z,45.63
2024-01-06T18:55:09.433Z,45.53
2024-01-06T18:55:43.197Z,45.20
2024-01-06T18:56:16.626Z,43.80
2024-01-06T18:56:50.121Z,44.50
2024-01-06T18:57:25.156Z,45.93
2024-01-06T18:57:58.563Z,46.23
2024-01-06T18:58:32.294Z,45.73
2024-01-06T18:59:05.569Z,46.70
2024-01-06T18:59:39.225Z,46.13
2024-01-06T19:00:14.198Z,45.93
2024-01-06T19:00:47.950Z,45.57
2024-01-06T19:01:24.282Z,45.77
2024-01-06T19:02:00.858Z,47.00
2024-01-06T19:02:38.635Z,46.17
2024-01-06T19:03:12.256Z,44.67
2024-01-06T19:03:46.488Z,45.83
2024-01-06T19:04:20.428Z,46.73
2024-01-06T19:04:54.575Z,44.60
2024-01-06T19:05:32.759Z,44.93
2024-01-06T19:06:07.869Z,44.07
2024-01-06T19:06:41.458Z,44.03
2024-01-06T19:07:17.359Z,43.73
2024-01-06T19:07:50.805Z,44.57
2024-01-06T19:08:24.939Z,45.20
2024-01-06T19:08:58.700Z,45.00
2024-01-06T19:09:32.411Z,44.47
2024-01-06T19:10:07.557Z,43.63
2024-01-06T19:10:41.894Z,43.73
2024-01-06T19:11:15.303Z,44.73
2024-01-06T19:11:49.134Z,43.93
2024-01-06T19:12:22.588Z,45.03
2024-01-06T19:12:56.543Z,44.90
2024-01-06T19:13:30.257Z,43.03
2024-01-06T19:14:04.040Z,44.07
2024-01-06T19:14:40.046Z,44.90
2024-01-06T19:15:13.993Z,42.70
2024-01-06T19:15:48.340Z,44.40
2024-01-06T19:16:21.736Z,45.40
2024-01-06T19:16:56.344Z,44.27
2024-01-06T19:17:31.376Z,43.57
2024-01-06T19:18:05.223Z,43.70
2024-01-06T19:18:38.888Z,45.67
2024-01-06T19:19:12.874Z,45.13
2024-01-06T19:19:47.255Z,44.47
2024-01-06T19:20:20.773Z,44.93
2024-01-06T19:20:55.597Z,43.67
2024-01-06T19:21:29.072Z,43.47
2024-01-06T19:22:02.827Z,44.97
2024-01-06T19:22:36.182Z,45.40
2024-01-06T19:23:10.416Z,45.97
2024-01-06T19:23:44.153Z,44.97
2024-01-06T19:24:27.588Z,44.03
2024-01-06T19:25:08.972Z,44.10
2024-01-06T19:25:42.885Z,45.53
2024-01-06T19:26:16.199Z,44.50
2024-01-06T19:26:49.506Z,43.47
2024-01-06T19:27:23.336Z,43.97
2024-01-06T19:27:56.921Z,45.30
2024-01-06T19:28:30.627Z,44.10
2024-01-06T19:29:03.913Z,44.43
2024-01-06T19:29:43.800Z,45.50
2024-01-06T19:30:18.060Z,45.07
2024-01-06T19:30:51.826Z,43.37
2024-01-06T19:31:27.207Z,43.90
2024-01-06T19:32:00.614Z,43.57
2024-01-06T19:32:34.052Z,41.30
2024-01-06T19:33:09.862Z,41.40
2024-01-06T19:33:43.680Z,41.83
2024-01-06T19:34:17.896Z,43.13
2024-01-06T19:34:55.919Z,43.00
2024-01-06T19:35:29.649Z,42.00
2024-01-06T19:36:03.313Z,44.97
2024-01-06T19:36:36.775Z,44.47
2024-01-06T19:37:10.345Z,42.33
2024-01-06T19:37:43.772Z,42.40
2024-01-06T19:38:20.301Z,42.47
2024-01-06T19:38:54.665Z,41.43
2024-01-06T19:39:29.831Z,40.13
2024-01-06T19:40:03.619Z,40.07
2024-01-06T19:40:37.403Z,39.87
2024-01-06T19:41:11.378Z,40.00
2024-01-06T19:41:45.267Z,39.67
2024-01-06T19:42:18.856Z,39.10
2024-01-06T19:43:00.853Z,40.10
2024-01-06T19:43:34.586Z,40.40
2024-01-06T19:44:09.264Z,40.33
2024-01-06T19:44:43.331Z,39.10
2024-01-06T19:45:18.116Z,38.07
2024-01-06T19:45:55.648Z,39.47
2024-01-06T19:46:30.315Z,39.70
2024-01-06T19:47:04.262Z,39.33
2024-01-06T19:47:38.130Z,37.87
2024-01-06T19:48:11.595Z,37.53
2024-01-06T19:48:45.245Z,37.87
2024-01-06T19:49:19.178Z,36.87
2024-01-06T19:49:53.309Z,37.60
2024-01-06T19:50:28.953Z,38.90
2024-01-06T19:51:03.574Z,38.43
2024-01-06T19:51:37.369Z,37.77
2024-01-06T19:52:11.204Z,37.47
2024-01-06T19:52:44.789Z,38.13
2024-01-06T19:53:18.928Z,37.37
2024-01-06T19:53:52.459Z,38.83
2024-01-06T19:54:26.175Z,38.87
2024-01-06T19:55:01.878Z,37.77
2024-01-06T19:55:36.159Z,39.20
2024-01-06T19:56:17.617Z,37.47
2024-01-06T19:56:51.254Z,37.20
2024-01-06T19:57:25.122Z,37.37
2024-01-06T19:58:03.408Z,38.67
2024-01-06T19:58:37.059Z,40.73
2024-01-06T19:59:12.203Z,39.73
2024-01-06T19:59:48.642Z,38.93
2024-01-06T20:00:31.794Z,38.97
2024-01-06T20:01:09.689Z,38.33
2024-01-06T20:01:43.330Z,37.93
2024-01-06T20:02:17.264Z,37.30
2024-01-06T20:02:51.492Z,40.00
2024-01-06T20:03:25.178Z,38.73
2024-01-06T20:03:58.679Z,37.87
2024-01-06T20:04:32.211Z,38.10
2024-01-06T20:05:08.065Z,38.63
2024-01-06T20:05:41.498Z,39.73
2024-01-06T20:06:15.481Z,39.37
2024-01-06T20:06:49.049Z,39.63
2024-01-06T20:07:27.726Z,40.47
2024-01-06T20:08:01.390Z,42.00
2024-01-06T20:08:35.026Z,39.90
2024-01-06T20:09:09.116Z,39.03
2024-01-06T20:09:48.458Z,39.87
2024-01-06T20:10:22.081Z,39.83
2024-01-06T20:11:01.363Z,38.77
2024-01-06T20:11:34.857Z,40.37
2024-01-06T20:12:09.097Z,40.80
2024-01-06T20:12:44.036Z,38.47
2024-01-06T20:13:17.516Z,39.50
2024-01-06T20:13:54.780Z,37.77
2024-01-06T20:14:28.564Z,39.23
2024-01-06T20:15:01.931Z,38.60
2024-01-06T20:15:35.396Z,39.10
2024-01-06T20:16:09.113Z,39.07
2024-01-06T20:16:42.616Z,37.87
2024-01-06T20:17:16.587Z,39.67
2024-01-06T20:17:50.077Z,38.80
2024-01-06T20:18:27.349Z,39.77
2024-01-06T20:19:08.002Z,39.70
2024-01-06T20:19:41.570Z,40.17
2024-01-06T20:20:15.173Z,41.00
2024-01-06T20:20:49.150Z,39.47
2024-01-06T20:21:22.601Z,39.73
2024-01-06T20:21:56.681Z,39.03
2024-01-06T20:22:30.278Z,40.27
2024-01-06T20:23:03.865Z,39.47
2024-01-06T20:23:37.287Z,39.00
2024-01-06T20:24:10.599Z,40.30
2024-01-06T20:24:44.441Z,40.57
2024-01-06T20:25:18.251Z,41.60
2024-01-06T20:25:51.898Z,40.73
2024-01-06T20:26:27.202Z,37.77
2024-01-06T20:27:00.792Z,40.57
2024-01-06T20:27:35.896Z,40.40
2024-01-06T20:28:09.978Z,39.93
2024-01-06T20:28:45.988Z,40.07
2024-01-06T20:29:19.937Z,40.70
2024-01-06T20:29:54.566Z,41.23
2024-01-06T20:30:28.358Z,40.50
2024-01-06T20:31:07.653Z,41.70
2024-01-06T20:31:41.520Z,41.93
2024-01-06T20:32:15.576Z,42.17
2024-01-06T20:32:49.232Z,42.17
2024-01-06T20:33:22.763Z,41.80
2024-01-06T20:33:57.003Z,42.10
2024-01-06T20:34:31.147Z,41.30
2024-01-06T20:35:05.299Z,39.33
2024-01-06T20:35:38.775Z,39.80
2024-01-06T20:36:13.947Z,40.00
2024-01-06T20:36:47.668Z,40.80
2024-01-06T20:37:22.331Z,41.80
2024-01-06T20:37:56.578Z,40.43
2024-01-06T20:38:30.257Z,40.80
2024-01-06T20:39:04.048Z,40.27
2024-01-06T20:39:37.653Z,38.70
2024-01-06T20:40:11.954Z,38.40
2024-01-06T20:40:45.428Z,39.67
2024-01-06T20:41:18.893Z,39.80
2024-01-06T20:41:52.844Z,40.47
2024-01-06T20:42:26.610Z,40.93
2024-01-06T20:43:00.168Z,38.87
2024-01-06T20:43:33.829Z,40.27
2024-01-06T20:44:09.538Z,39.73
2024-01-06T20:44:44.051Z,40.47
2024-01-06T20:45:19.372Z,39.97
2024-01-06T20:45:55.493Z,39.83
2024-01-06T20:46:30.220Z,39.20
2024-01-06T20:47:03.695Z,39.60
2024-01-06T20:47:37.643Z,40.77
2024-01-06T20:48:11.441Z,39.63
2024-01-06T20:48:47.129Z,39.30
2024-01-06T20:49:21.336Z,39.03
2024-01-06T20:49:56.084Z,37.97
2024-01-06T20:50:29.418Z,37.67
2024-01-06T20:51:03.664Z,37.47
2024-01-06T20:51:37.476Z,37.87
2024-01-06T20:52:11.561Z,37.67
2024-01-06T20:52:45.020Z,38.57
2024-01-06T20:53:18.294Z,37.67
2024-01-06T20:53:52.150Z,38.20
2024-01-06T20:54:25.917Z,37.53
2024-01-06T20:54:59.410Z,37.03
2024-01-06T20:55:33.110Z,37.63
2024-01-06T20:56:07.790Z,36.63
2024-01-06T20:56:41.334Z,38.27
2024-01-06T20:57:14.945Z,37.57
2024-01-06T20:57:49.624Z,38.53
2024-01-06T20:58:23.343Z,37.93
2024-01-06T20:58:57.382Z,38.10
2024-01-06T20:59:31.754Z,39.60
2024-01-06T21:00:06.198Z,37.30
2024-01-06T21:00:40.288Z,37.27
2024-01-06T21:01:14.088Z,37.57
2024-01-06T21:01:47.841Z,38.17
2024-01-06T21:02:22.218Z,34.80
2024-01-06T21:02:56.757Z,35.80
2024-01-06T21:03:30.688Z,36.03
2024-01-06T21:04:04.559Z,36.17
2024-01-06T21:04:38.137Z,35.20
2024-01-06T21:05:11.723Z,36.70
2024-01-06T21:05:45.686Z,36.80
2024-01-06T21:06:20.177Z,37.30
2024-01-06T21:06:54.378Z,37.03
2024-01-06T21:07:28.135Z,34.67
2024-01-06T21:08:02.199Z,35.17
2024-01-06T21:08:37.842Z,35.80
2024-01-06T21:09:11.577Z,35.27
2024-01-06T21:09:45.050Z,35.67
2024-01-06T21:10:18.797Z,35.40
2024-01-06T21:10:52.984Z,34.97
2024-01-06T21:11:27.716Z,36.83
2024-01-06T21:12:01.059Z,36.63
2024-01-06T21:12:34.801Z,35.57
2024-01-06T21:13:08.658Z,35.83
2024-01-06T21:13:42.064Z,35.77
2024-01-06T21:14:15.431Z,35.03
2024-01-06T21:14:49.140Z,35.57
2024-01-06T21:15:23.761Z,35.70
2024-01-06T21:15:57.241Z,36.57
2024-01-06T21:16:30.622Z,34.97
2024-01-06T21:17:04.043Z,35.23
2024-01-06T21:17:37.430Z,36.37
2024-01-06T21:18:12.031Z,34.53
2024-01-06T21:18:47.317Z,35.40
2024-01-06T21:19:22.011Z,36.07
2024-01-06T21:19:56.581Z,36.33
2024-01-06T21:20:29.945Z,35.93
2024-01-06T21:21:04.710Z,35.53
2024-01-06T21:21:38.785Z,34.90
2024-01-06T21:22:12.491Z,36.40
2024-01-06T21:22:45.828Z,35.57
2024-01-06T21:23:31.622Z,36.10
2024-01-06T21:24:13.628Z,36.13
2024-01-06T21:24:51.428Z,36.23
2024-01-06T21:25:24.975Z,36.33
2024-01-06T21:26:03.987Z,37.83
2024-01-06T21:26:37.933Z,37.70
2024-01-06T21:27:11.620Z,37.80
2024-01-06T21:27:45.415Z,36.90
2024-01-06T21:28:19.058Z,37.43
2024-01-06T21:28:56.375Z,37.13
2024-01-06T21:29:30.909Z,36.77
2024-01-06T21:30:06.754Z,37.43
2024-01-06T21:30:43.673Z,38.13
2024-01-06T21:31:17.618Z,38.13
2024-01-06T21:31:51.325Z,38.60
2024-01-06T21:32:25.090Z,37.97
2024-01-06T21:33:02.154Z,38.40
2024-01-06T21:33:36.533Z,38.63
2024-01-06T21:34:10.684Z,38.60
2024-01-06T21:34:44.179Z,37.77
2024-01-06T21:35:17.580Z,40.13
2024-01-06T21:35:51.609Z,38.97
2024-01-06T21:36:25.495Z,38.10
2024-01-06T21:36:59.812Z,38.90
2024-01-06T21:37:36.134Z,40.60
2024-01-06T21:38:13.630Z,39.30
2024-01-06T21:38:46.920Z,39.03
2024-01-06T21:39:20.662Z,38.10
2024-01-06T21:39:56.533Z,37.77
2024-01-06T21:40:30.784Z,39.90
2024-01-06T21:41:05.585Z,39.70
2024-01-06T21:41:42.064Z,40.77
2024-01-06T21:42:15.743Z,38.40
2024-01-06T21:42:49.361Z,38.07
2024-01-06T21:43:22.922Z,38.43
2024-01-06T21:43:56.939Z,37.50
2024-01-06T21:44:30.645Z,37.27
2024-01-06T21:45:05.164Z,37.63
2024-01-06T21:45:39.212Z,39.17
2024-01-06T21:46:13.218Z,37.57
2024-01-06T21:46:46.936Z,38.37
2024-01-06T21:47:20.612Z,39.43
2024-01-06T21:47:56.923Z,40.23
2024-01-06T21:48:31.078Z,38.47
2024-01-06T21:49:05.038Z,39.20
2024-01-06T21:49:40.063Z,37.77
2024-01-06T21:50:16.898Z,38.80
2024-01-06T21:50:50.314Z,39.80
2024-01-06T21:51:23.769Z,41.97
2024-01-06T21:51:57.310Z,39.87
2024-01-06T21:52:30.727Z,39.20
2024-01-06T21:53:04.236Z,39.27
2024-01-06T21:53:37.568Z,38.27
2024-01-06T21:54:13.559Z,38.00
2024-01-06T21:54:47.147Z,38.13
2024-01-06T21:55:20.661Z,37.23
2024-01-06T21:55:54.832Z,36.27
2024-01-06T21:56:28.637Z,35.20
2024-01-06T21:57:01.950Z,35.43
2024-01-06T21:57:35.337Z,35.00
2024-01-06T21:58:09.977Z,35.70
2024-01-06T21:58:43.612Z,35.73
2024-01-06T21:59:17.165Z,37.20
2024-01-06T21:59:50.585Z,36.57
2024-01-06T22:00:24.501Z,36.93
2024-01-06T22:00:59.224Z,36.77
2024-01-06T22:01:32.994Z,34.87
2024-01-06T22:02:06.783Z,35.67
2024-01-06T22:02:40.043Z,37.20
2024-01-06T22:03:13.623Z,37.13
2024-01-06T22:03:47.436Z,37.73
2024-01-06T22:04:21.367Z,36.97
2024-01-06T22:04:56.052Z,35.67
2024-01-06T22:05:29.412Z,36.90
2024-01-06T22:06:03.241Z,36.43
2024-01-06T22:06:41.299Z,37.10
2024-01-06T22:07:16.435Z,36.30
2024-01-06T22:07:49.753Z,36.67
2024-01-06T22:08:23.505Z,35.57
2024-01-06T22:08:56.827Z,37.60
2024-01-06T22:09:45.009Z,37.17
2024-01-06T22:10:19.722Z,36.47
2024-01-06T22:10:53.131Z,38.07
2024-01-06T22:11:28.063Z,37.93
2024-01-06T22:12:01.936Z,39.30
2024-01-06T22:12:35.757Z,38.37
2024-01-06T22:13:09.282Z,37.50
2024-01-06T22:13:42.624Z,39.10
2024-01-06T22:14:16.334Z,39.33
2024-01-06T22:14:50.060Z,40.13
2024-01-06T22:15:23.793Z,38.93
2024-01-06T22:16:00.017Z,40.50
2024-01-06T22:16:33.377Z,41.63
2024-01-06T22:17:07.357Z,40.73
2024-01-06T22:17:40.967Z,39.03
2024-01-06T22:18:14.758Z,37.23
2024-01-06T22:18:48.714Z,37.70
2024-01-06T22:19:22.486Z,37.97
2024-01-06T22:19:56.637Z,38.80
2024-01-06T22:20:30.223Z,41.73
2024-01-06T22:21:04.861Z,44.73
2024-01-06T22:21:44.102Z,47.33
2024-01-06T22:22:18.908Z,47.10
2024-01-06T22:22:52.363Z,47.70
2024-01-06T22:23:26.159Z,48.10
2024-01-06T22:24:00.596Z,49.50
2024-01-06T22:24:34.712Z,50.17
2024-01-06T22:25:08.865Z,51.10
2024-01-06T22:25:42.437Z,49.07
2024-01-06T22:26:15.700Z,50.83
2024-01-06T22:26:49.041Z,49.80
2024-01-06T22:27:22.835Z,49.40
2024-01-06T22:27:56.661Z,48.97
2024-01-06T22:28:30.233Z,49.00
2024-01-06T22:29:07.779Z,49.27
2024-01-06T22:29:44.268Z,46.27
2024-01-06T22:30:18.279Z,44.13
2024-01-06T22:30:52.388Z,44.20
2024-01-06T22:31:27.163Z,44.87
2024-01-06T22:32:00.724Z,41.80
2024-01-06T22:32:34.254Z,40.43
2024-01-06T22:33:07.974Z,38.73
2024-01-06T22:33:41.735Z,39.50
2024-01-06T22:34:15.552Z,38.90
2024-01-06T22:34:49.076Z,37.13
2024-01-06T22:35:22.641Z,36.70
2024-01-06T22:35:56.840Z,35.63
2024-01-06T22:36:30.215Z,36.27
2024-01-06T22:37:03.852Z,37.07
2024-01-06T22:37:40.487Z,37.60
2024-01-06T22:38:17.103Z,37.43
2024-01-06T22:38:55.505Z,38.30
2024-01-06T22:39:34.510Z,38.10
2024-01-06T22:40:09.134Z,36.43
2024-01-06T22:40:43.021Z,38.30
2024-01-06T22:41:17.010Z,38.23
2024-01-06T22:41:50.636Z,37.00
2024-01-06T22:42:24.302Z,36.00
2024-01-06T22:42:57.654Z,36.47
2024-01-06T22:43:33.811Z,37.20
2024-01-06T22:44:07.924Z,38.47
2024-01-06T22:44:42.447Z,35.57
2024-01-06T22:45:15.926Z,37.23
2024-01-06T22:45:49.575Z,35.90
2024-01-06T22:46:25.646Z,36.40
2024-01-06T22:47:01.154Z,35.33
2024-01-06T22:47:34.577Z,35.83
2024-01-06T22:48:08.991Z,34.37
2024-01-06T22:48:42.880Z,33.23
2024-01-06T22:49:16.641Z,33.33
2024-01-06T22:49:50.029Z,32.37
2024-01-06T22:50:23.754Z,33.63
2024-01-06T22:50:57.401Z,33.60
2024-01-06T22:51:30.899Z,31.53
2024-01-06T22:52:04.933Z,32.33
2024-01-06T22:52:38.582Z,31.03
2024-01-06T22:53:12.121Z,32.57
2024-01-06T22:53:45.529Z,32.43
2024-01-06T22:54:19.127Z,31.17
2024-01-06T22:54:52.427Z,31.80
2024-01-06T22:55:26.106Z,31.57
2024-01-06T22:56:00.061Z,29.90
2024-01-06T22:56:33.779Z,31.00
2024-01-06T22:57:07.096Z,31.10
2024-01-06T22:57:40.860Z,30.77
2024-01-06T22:58:14.292Z,30.43
2024-01-06T22:58:47.894Z,30.90
2024-01-06T22:59:21.497Z,30.83
2024-01-06T22:59:59.284Z,30.93
2024-01-06T23:00:37.621Z,30.30
2024-01-06T23:01:11.693Z,29.30
2024-01-06T23:01:46.705Z,29.97
2024-01-06T23:02:20.284Z,30.70
2024-01-06T23:02:54.552Z,30.73
2024-01-06T23:03:28.399Z,30.30
2024-01-06T23:04:02.251Z,30.60
2024-01-06T23:04:35.755Z,30.50
2024-01-06T23:05:17.716Z,30.27
2024-01-06T23:05:53.028Z,29.43
2024-01-06T23:06:29.704Z,29.00
2024-01-06T23:07:04.952Z,28.20
2024-01-06T23:07:38.564Z,29.20
